sensor_id;sensor_type;location;lat;lon;timestamp;temperature;humidity
40059;SHT31;25763;49.972;8.568;2023-01-19T00:00:42;-0.88;80.40
40059;SHT31;25763;49.972;8.568;2023-01-19T00:03:07;-0.89;80.35
40059;SHT31;25763;49.972;8.568;2023-01-19T00:05:41;-0.88;80.49
40059;SHT31;25763;49.972;8.568;2023-01-19T00:08:07;-0.91;80.41
40059;SHT31;25763;49.972;8.568;2023-01-19T00:10:48;-0.92;80.57
40059;SHT31;25763;49.972;8.568;2023-01-19T00:13:15;-0.89;80.66
40059;SHT31;25763;49.972;8.568;2023-01-19T00:15:41;-0.88;80.64
40059;SHT31;25763;49.972;8.568;2023-01-19T00:18:07;-0.84;80.64
40059;SHT31;25763;49.972;8.568;2023-01-19T00:20:32;-0.82;80.52
40059;SHT31;25763;49.972;8.568;2023-01-19T00:22:59;-0.82;80.43
40059;SHT31;25763;49.972;8.568;2023-01-19T00:25:25;-0.82;80.49
40059;SHT31;25763;49.972;8.568;2023-01-19T00:27:50;-0.84;80.52
40059;SHT31;25763;49.972;8.568;2023-01-19T00:30:16;-0.84;80.68
40059;SHT31;25763;49.972;8.568;2023-01-19T00:32:41;-0.79;80.78
40059;SHT31;25763;49.972;8.568;2023-01-19T00:35:07;-0.78;80.64
40059;SHT31;25763;49.972;8.568;2023-01-19T00:37:33;-0.79;80.62
40059;SHT31;25763;49.972;8.568;2023-01-19T00:39:58;-0.77;80.54
40059;SHT31;25763;49.972;8.568;2023-01-19T00:42:23;-0.79;80.57
40059;SHT31;25763;49.972;8.568;2023-01-19T00:45:08;-0.77;80.58
40059;SHT31;25763;49.972;8.568;2023-01-19T00:47:34;-0.71;80.71
40059;SHT31;25763;49.972;8.568;2023-01-19T00:49:59;-0.70;80.47
40059;SHT31;25763;49.972;8.568;2023-01-19T00:52:25;-0.77;80.49
40059;SHT31;25763;49.972;8.568;2023-01-19T00:54:50;-0.75;80.52
40059;SHT31;25763;49.972;8.568;2023-01-19T00:57:15;-0.74;80.48
40059;SHT31;25763;49.972;8.568;2023-01-19T00:59:41;-0.78;80.49
40059;SHT31;25763;49.972;8.568;2023-01-19T01:02:06;-0.77;80.54
40059;SHT31;25763;49.972;8.568;2023-01-19T01:04:32;-0.81;80.57
40059;SHT31;25763;49.972;8.568;2023-01-19T01:06:57;-0.81;80.74
40059;SHT31;25763;49.972;8.568;2023-01-19T01:09:23;-0.82;80.75
40059;SHT31;25763;49.972;8.568;2023-01-19T01:11:48;-0.82;80.79
40059;SHT31;25763;49.972;8.568;2023-01-19T01:14:14;-0.85;80.98
40059;SHT31;25763;49.972;8.568;2023-01-19T01:16:39;-0.87;81.17
40059;SHT31;25763;49.972;8.568;2023-01-19T01:19:05;-0.84;81.18
40059;SHT31;25763;49.972;8.568;2023-01-19T01:21:31;-0.82;81.10
40059;SHT31;25763;49.972;8.568;2023-01-19T01:23:58;-0.84;81.06
40059;SHT31;25763;49.972;8.568;2023-01-19T01:26:24;-0.81;81.22
40059;SHT31;25763;49.972;8.568;2023-01-19T01:28:49;-0.81;81.17
40059;SHT31;25763;49.972;8.568;2023-01-19T01:31:15;-0.79;81.15
40059;SHT31;25763;49.972;8.568;2023-01-19T01:33:40;-0.81;81.17
40059;SHT31;25763;49.972;8.568;2023-01-19T01:36:06;-0.81;81.12
40059;SHT31;25763;49.972;8.568;2023-01-19T01:38:31;-0.84;81.25
40059;SHT31;25763;49.972;8.568;2023-01-19T01:40:57;-0.88;81.56
40059;SHT31;25763;49.972;8.568;2023-01-19T01:43:22;-0.91;81.74
40059;SHT31;25763;49.972;8.568;2023-01-19T01:45:47;-0.88;81.79
40059;SHT31;25763;49.972;8.568;2023-01-19T01:48:23;-0.91;81.77
40059;SHT31;25763;49.972;8.568;2023-01-19T01:50:57;-0.87;81.66
40059;SHT31;25763;49.972;8.568;2023-01-19T01:53:44;-0.91;81.93
40059;SHT31;25763;49.972;8.568;2023-01-19T01:56:14;-0.87;81.83
40059;SHT31;25763;49.972;8.568;2023-01-19T01:58:42;-0.84;81.86
40059;SHT31;25763;49.972;8.568;2023-01-19T02:01:08;-0.85;81.98
40059;SHT31;25763;49.972;8.568;2023-01-19T02:03:53;-0.85;82.02
40059;SHT31;25763;49.972;8.568;2023-01-19T02:06:19;-0.89;82.26
40059;SHT31;25763;49.972;8.568;2023-01-19T02:08:52;-0.87;82.13
40059;SHT31;25763;49.972;8.568;2023-01-19T02:11:37;-0.82;81.97
40059;SHT31;25763;49.972;8.568;2023-01-19T02:14:21;-0.87;82.04
40059;SHT31;25763;49.972;8.568;2023-01-19T02:16:47;-0.81;81.98
40059;SHT31;25763;49.972;8.568;2023-01-19T02:19:15;-0.82;81.99
40059;SHT31;25763;49.972;8.568;2023-01-19T02:21:52;-0.87;82.16
40059;SHT31;25763;49.972;8.568;2023-01-19T02:24:19;-0.87;82.16
40059;SHT31;25763;49.972;8.568;2023-01-19T02:26:46;-0.89;82.14
40059;SHT31;25763;49.972;8.568;2023-01-19T02:29:23;-0.98;82.41
40059;SHT31;25763;49.972;8.568;2023-01-19T02:31:49;-0.96;82.64
40059;SHT31;25763;49.972;8.568;2023-01-19T02:34:17;-0.98;82.56
40059;SHT31;25763;49.972;8.568;2023-01-19T02:36:52;-1.00;82.65
40059;SHT31;25763;49.972;8.568;2023-01-19T02:39:22;-1.05;82.89
40059;SHT31;25763;49.972;8.568;2023-01-19T02:41:57;-0.91;82.85
40059;SHT31;25763;49.972;8.568;2023-01-19T02:44:25;-0.91;82.67
40059;SHT31;25763;49.972;8.568;2023-01-19T02:46:55;-0.93;82.70
40059;SHT31;25763;49.972;8.568;2023-01-19T02:49:20;-0.93;82.85
40059;SHT31;25763;49.972;8.568;2023-01-19T02:51:46;-0.87;82.94
40059;SHT31;25763;49.972;8.568;2023-01-19T03:02:20;-0.71;82.68
40059;SHT31;25763;49.972;8.568;2023-01-19T03:05:12;-0.64;82.54
40059;SHT31;25763;49.972;8.568;2023-01-19T03:13:15;-0.60;82.55
40059;SHT31;25763;49.972;8.568;2023-01-19T03:15:49;-0.60;82.49
40059;SHT31;25763;49.972;8.568;2023-01-19T03:18:19;-0.61;82.31
40059;SHT31;25763;49.972;8.568;2023-01-19T03:20:50;-0.64;82.54
40059;SHT31;25763;49.972;8.568;2023-01-19T03:23:18;-0.67;82.73
40059;SHT31;25763;49.972;8.568;2023-01-19T03:25:47;-0.61;82.59
40059;SHT31;25763;49.972;8.568;2023-01-19T03:28:15;-0.61;82.78
40059;SHT31;25763;49.972;8.568;2023-01-19T03:30:46;-0.60;82.91
40059;SHT31;25763;49.972;8.568;2023-01-19T03:33:27;-0.56;82.80
40059;SHT31;25763;49.972;8.568;2023-01-19T03:35:58;-0.53;82.70
40059;SHT31;25763;49.972;8.568;2023-01-19T03:38:31;-0.57;82.83
40059;SHT31;25763;49.972;8.568;2023-01-19T03:41:01;-0.58;83.00
40059;SHT31;25763;49.972;8.568;2023-01-19T03:43:27;-0.60;83.36
40059;SHT31;25763;49.972;8.568;2023-01-19T03:45:54;-0.57;83.38
40059;SHT31;25763;49.972;8.568;2023-01-19T03:48:20;-0.54;83.21
40059;SHT31;25763;49.972;8.568;2023-01-19T03:50:46;-0.56;83.27
40059;SHT31;25763;49.972;8.568;2023-01-19T03:53:14;-0.58;83.29
40059;SHT31;25763;49.972;8.568;2023-01-19T03:55:45;-0.57;83.20
40059;SHT31;25763;49.972;8.568;2023-01-19T03:58:11;-0.60;83.22
40059;SHT31;25763;49.972;8.568;2023-01-19T04:00:37;-0.63;83.27
40059;SHT31;25763;49.972;8.568;2023-01-19T04:03:04;-0.65;83.42
40059;SHT31;25763;49.972;8.568;2023-01-19T04:05:29;-0.68;83.61
40059;SHT31;25763;49.972;8.568;2023-01-19T04:07:55;-0.65;83.74
40059;SHT31;25763;49.972;8.568;2023-01-19T04:10:21;-0.63;83.72
40059;SHT31;25763;49.972;8.568;2023-01-19T04:12:47;-0.71;83.99
40059;SHT31;25763;49.972;8.568;2023-01-19T04:15:13;-0.67;83.88
40059;SHT31;25763;49.972;8.568;2023-01-19T04:17:39;-0.64;83.88
40059;SHT31;25763;49.972;8.568;2023-01-19T04:20:05;-0.63;83.90
40059;SHT31;25763;49.972;8.568;2023-01-19T04:22:31;-0.63;83.86
40059;SHT31;25763;49.972;8.568;2023-01-19T04:24:56;-0.63;83.96
40059;SHT31;25763;49.972;8.568;2023-01-19T04:27:22;-0.60;83.88
40059;SHT31;25763;49.972;8.568;2023-01-19T04:29:47;-0.60;83.87
40059;SHT31;25763;49.972;8.568;2023-01-19T04:32:13;-0.58;84.01
40059;SHT31;25763;49.972;8.568;2023-01-19T04:34:38;-0.58;84.09
40059;SHT31;25763;49.972;8.568;2023-01-19T04:37:04;-0.54;83.94
40059;SHT31;25763;49.972;8.568;2023-01-19T04:39:29;-0.57;84.04
40059;SHT31;25763;49.972;8.568;2023-01-19T04:41:54;-0.56;83.90
40059;SHT31;25763;49.972;8.568;2023-01-19T04:44:22;-0.56;84.01
40059;SHT31;25763;49.972;8.568;2023-01-19T04:46:47;-0.57;84.20
40059;SHT31;25763;49.972;8.568;2023-01-19T04:49:12;-0.57;84.31
40059;SHT31;25763;49.972;8.568;2023-01-19T04:51:38;-0.56;84.32
40059;SHT31;25763;49.972;8.568;2023-01-19T04:54:04;-0.58;84.40
40059;SHT31;25763;49.972;8.568;2023-01-19T04:56:29;-0.57;84.59
40059;SHT31;25763;49.972;8.568;2023-01-19T04:58:54;-0.54;84.63
40059;SHT31;25763;49.972;8.568;2023-01-19T05:01:20;-0.53;84.77
40059;SHT31;25763;49.972;8.568;2023-01-19T05:03:45;-0.47;84.72
40059;SHT31;25763;49.972;8.568;2023-01-19T05:06:11;-0.40;84.56
40059;SHT31;25763;49.972;8.568;2023-01-19T05:08:37;-0.36;84.48
40059;SHT31;25763;49.972;8.568;2023-01-19T05:11:03;-0.32;84.50
40059;SHT31;25763;49.972;8.568;2023-01-19T05:13:28;-0.29;84.48
40059;SHT31;25763;49.972;8.568;2023-01-19T05:15:54;-0.29;84.59
40059;SHT31;25763;49.972;8.568;2023-01-19T05:18:19;-0.23;84.53
40059;SHT31;25763;49.972;8.568;2023-01-19T05:20:44;-0.22;84.51
40059;SHT31;25763;49.972;8.568;2023-01-19T05:23:10;-0.17;84.69
40059;SHT31;25763;49.972;8.568;2023-01-19T05:25:35;-0.17;84.60
40059;SHT31;25763;49.972;8.568;2023-01-19T05:28:01;-0.12;84.51
40059;SHT31;25763;49.972;8.568;2023-01-19T05:30:27;-0.11;84.49
40059;SHT31;25763;49.972;8.568;2023-01-19T05:32:52;-0.07;84.44
40059;SHT31;25763;49.972;8.568;2023-01-19T05:35:18;-0.04;84.47
40059;SHT31;25763;49.972;8.568;2023-01-19T05:37:43;0.05;84.37
40059;SHT31;25763;49.972;8.568;2023-01-19T05:40:09;0.02;84.31
40059;SHT31;25763;49.972;8.568;2023-01-19T05:42:35;0.06;84.38
40059;SHT31;25763;49.972;8.568;2023-01-19T05:45:00;0.12;84.35
40059;SHT31;25763;49.972;8.568;2023-01-19T05:47:29;0.17;84.27
40059;SHT31;25763;49.972;8.568;2023-01-19T05:49:54;0.20;84.17
40059;SHT31;25763;49.972;8.568;2023-01-19T05:52:20;0.23;84.12
40059;SHT31;25763;49.972;8.568;2023-01-19T05:54:46;0.26;84.17
40059;SHT31;25763;49.972;8.568;2023-01-19T05:57:12;0.31;84.05
40059;SHT31;25763;49.972;8.568;2023-01-19T05:59:39;0.33;84.08
40059;SHT31;25763;49.972;8.568;2023-01-19T06:02:04;0.31;84.06
40059;SHT31;25763;49.972;8.568;2023-01-19T06:04:30;0.36;84.06
40059;SHT31;25763;49.972;8.568;2023-01-19T06:06:55;0.41;83.98
40059;SHT31;25763;49.972;8.568;2023-01-19T06:09:21;0.45;84.00
40059;SHT31;25763;49.972;8.568;2023-01-19T06:11:46;0.49;83.90
40059;SHT31;25763;49.972;8.568;2023-01-19T06:14:12;0.52;83.84
40059;SHT31;25763;49.972;8.568;2023-01-19T06:16:37;0.58;83.59
40059;SHT31;25763;49.972;8.568;2023-01-19T06:19:03;0.59;83.50
40059;SHT31;25763;49.972;8.568;2023-01-19T06:21:28;0.57;83.66
40059;SHT31;25763;49.972;8.568;2023-01-19T06:23:53;0.55;83.68
40059;SHT31;25763;49.972;8.568;2023-01-19T06:26:19;0.59;83.57
40059;SHT31;25763;49.972;8.568;2023-01-19T06:28:44;0.62;83.60
40059;SHT31;25763;49.972;8.568;2023-01-19T06:31:10;0.66;83.36
40059;SHT31;25763;49.972;8.568;2023-01-19T06:33:36;0.66;83.22
40059;SHT31;25763;49.972;8.568;2023-01-19T06:36:01;0.65;83.26
40059;SHT31;25763;49.972;8.568;2023-01-19T06:38:26;0.65;83.17
40059;SHT31;25763;49.972;8.568;2023-01-19T06:40:54;0.64;83.40
40059;SHT31;25763;49.972;8.568;2023-01-19T06:43:22;0.66;83.32
40059;SHT31;25763;49.972;8.568;2023-01-19T06:45:47;0.64;83.47
40059;SHT31;25763;49.972;8.568;2023-01-19T06:48:14;0.62;83.33
40059;SHT31;25763;49.972;8.568;2023-01-19T06:50:40;0.58;83.27
40059;SHT31;25763;49.972;8.568;2023-01-19T06:53:06;0.54;83.49
40059;SHT31;25763;49.972;8.568;2023-01-19T06:55:31;0.48;83.60
40059;SHT31;25763;49.972;8.568;2023-01-19T06:57:57;0.49;83.75
40059;SHT31;25763;49.972;8.568;2023-01-19T07:00:23;0.54;83.62
40059;SHT31;25763;49.972;8.568;2023-01-19T07:02:49;0.48;83.77
40059;SHT31;25763;49.972;8.568;2023-01-19T07:05:14;0.49;83.83
40059;SHT31;25763;49.972;8.568;2023-01-19T07:07:40;0.45;83.89
40059;SHT31;25763;49.972;8.568;2023-01-19T07:10:08;0.47;83.83
40059;SHT31;25763;49.972;8.568;2023-01-19T07:12:34;0.44;83.83
40059;SHT31;25763;49.972;8.568;2023-01-19T07:14:59;0.44;83.73
40059;SHT31;25763;49.972;8.568;2023-01-19T07:17:25;0.37;83.93
40059;SHT31;25763;49.972;8.568;2023-01-19T07:19:50;0.40;83.97
40059;SHT31;25763;49.972;8.568;2023-01-19T07:22:16;0.33;84.01
40059;SHT31;25763;49.972;8.568;2023-01-19T07:24:41;0.31;84.21
40059;SHT31;25763;49.972;8.568;2023-01-19T07:27:07;0.30;84.30
40059;SHT31;25763;49.972;8.568;2023-01-19T07:29:32;0.31;84.28
40059;SHT31;25763;49.972;8.568;2023-01-19T07:31:58;0.33;84.28
40059;SHT31;25763;49.972;8.568;2023-01-19T07:34:23;0.31;84.25
40059;SHT31;25763;49.972;8.568;2023-01-19T07:36:48;0.27;84.36
40059;SHT31;25763;49.972;8.568;2023-01-19T07:39:14;0.30;84.43
40059;SHT31;25763;49.972;8.568;2023-01-19T07:41:39;0.29;84.45
40059;SHT31;25763;49.972;8.568;2023-01-19T07:44:04;0.33;84.43
40059;SHT31;25763;49.972;8.568;2023-01-19T07:46:30;0.27;84.42
40059;SHT31;25763;49.972;8.568;2023-01-19T07:48:55;0.24;84.46
40059;SHT31;25763;49.972;8.568;2023-01-19T07:51:21;0.23;84.51
40059;SHT31;25763;49.972;8.568;2023-01-19T07:53:49;0.24;84.61
40059;SHT31;25763;49.972;8.568;2023-01-19T07:56:14;0.29;84.62
40059;SHT31;25763;49.972;8.568;2023-01-19T07:58:39;0.29;84.69
40059;SHT31;25763;49.972;8.568;2023-01-19T08:01:10;0.30;84.65
40059;SHT31;25763;49.972;8.568;2023-01-19T08:03:36;0.34;84.51
40059;SHT31;25763;49.972;8.568;2023-01-19T08:06:02;0.37;84.45
40059;SHT31;25763;49.972;8.568;2023-01-19T08:08:30;0.40;84.46
40059;SHT31;25763;49.972;8.568;2023-01-19T08:10:56;0.45;84.33
40059;SHT31;25763;49.972;8.568;2023-01-19T08:13:22;0.49;84.28
40059;SHT31;25763;49.972;8.568;2023-01-19T08:15:51;0.42;84.30
40059;SHT31;25763;49.972;8.568;2023-01-19T08:18:17;0.38;84.34
40059;SHT31;25763;49.972;8.568;2023-01-19T08:20:43;0.37;84.38
40059;SHT31;25763;49.972;8.568;2023-01-19T08:23:09;0.34;84.40
40059;SHT31;25763;49.972;8.568;2023-01-19T08:25:39;0.37;84.56
40059;SHT31;25763;49.972;8.568;2023-01-19T08:28:07;0.38;84.42
40059;SHT31;25763;49.972;8.568;2023-01-19T08:30:32;0.38;84.40
40059;SHT31;25763;49.972;8.568;2023-01-19T08:32:58;0.44;84.42
40059;SHT31;25763;49.972;8.568;2023-01-19T08:35:42;0.44;84.52
40059;SHT31;25763;49.972;8.568;2023-01-19T08:38:11;0.45;84.53
40059;SHT31;25763;49.972;8.568;2023-01-19T08:40:38;0.55;84.62
40059;SHT31;25763;49.972;8.568;2023-01-19T08:43:09;0.72;84.40
40059;SHT31;25763;49.972;8.568;2023-01-19T08:45:37;0.93;84.02
40059;SHT31;25763;49.972;8.568;2023-01-19T08:48:03;1.03;83.66
40059;SHT31;25763;49.972;8.568;2023-01-19T08:50:31;1.11;83.37
40059;SHT31;25763;49.972;8.568;2023-01-19T08:53:01;1.10;83.08
40059;SHT31;25763;49.972;8.568;2023-01-19T08:55:28;1.11;83.18
40059;SHT31;25763;49.972;8.568;2023-01-19T08:57:54;1.16;83.15
40059;SHT31;25763;49.972;8.568;2023-01-19T09:00:24;1.25;82.84
40059;SHT31;25763;49.972;8.568;2023-01-19T09:02:49;1.25;82.79
40059;SHT31;25763;49.972;8.568;2023-01-19T09:05:15;1.34;82.61
40059;SHT31;25763;49.972;8.568;2023-01-19T09:07:42;1.45;82.52
40059;SHT31;25763;49.972;8.568;2023-01-19T09:10:08;1.66;82.06
40059;SHT31;25763;49.972;8.568;2023-01-19T09:12:34;1.70;81.71
40059;SHT31;25763;49.972;8.568;2023-01-19T09:15:00;1.90;81.55
40059;SHT31;25763;49.972;8.568;2023-01-19T09:17:25;1.90;81.06
40059;SHT31;25763;49.972;8.568;2023-01-19T09:19:50;2.01;80.97
40059;SHT31;25763;49.972;8.568;2023-01-19T09:22:16;2.23;80.50
40059;SHT31;25763;49.972;8.568;2023-01-19T09:24:41;2.33;79.98
40059;SHT31;25763;49.972;8.568;2023-01-19T09:27:06;2.39;79.81
40059;SHT31;25763;49.972;8.568;2023-01-19T09:29:32;2.42;79.28
40059;SHT31;25763;49.972;8.568;2023-01-19T09:31:57;2.43;79.20
40059;SHT31;25763;49.972;8.568;2023-01-19T09:34:23;2.54;79.59
40059;SHT31;25763;49.972;8.568;2023-01-19T09:36:50;2.67;79.04
40059;SHT31;25763;49.972;8.568;2023-01-19T09:39:16;2.99;78.82
40059;SHT31;25763;49.972;8.568;2023-01-19T09:41:45;3.05;78.00
40059;SHT31;25763;49.972;8.568;2023-01-19T09:44:28;3.09;78.00
40059;SHT31;25763;49.972;8.568;2023-01-19T09:46:56;3.03;77.35
40059;SHT31;25763;49.972;8.568;2023-01-19T09:49:26;3.16;77.50
40059;SHT31;25763;49.972;8.568;2023-01-19T09:51:54;3.13;77.52
40059;SHT31;25763;49.972;8.568;2023-01-19T09:54:37;2.87;78.01
40059;SHT31;25763;49.972;8.568;2023-01-19T09:57:09;3.10;78.13
40059;SHT31;25763;49.972;8.568;2023-01-19T09:59:35;3.10;77.98
40059;SHT31;25763;49.972;8.568;2023-01-19T10:04:54;3.12;77.52
40059;SHT31;25763;49.972;8.568;2023-01-19T10:10:19;2.82;78.24
40059;SHT31;25763;49.972;8.568;2023-01-19T10:12:56;2.95;78.26
40059;SHT31;25763;49.972;8.568;2023-01-19T10:15:34;2.89;78.33
40059;SHT31;25763;49.972;8.568;2023-01-19T10:20:50;2.82;78.92
40059;SHT31;25763;49.972;8.568;2023-01-19T10:23:34;2.87;78.79
40059;SHT31;25763;49.972;8.568;2023-01-19T10:26:05;2.98;79.18
40059;SHT31;25763;49.972;8.568;2023-01-19T10:28:32;3.12;78.65
40059;SHT31;25763;49.972;8.568;2023-01-19T10:30:58;3.10;78.52
40059;SHT31;25763;49.972;8.568;2023-01-19T10:33:23;3.02;78.74
40059;SHT31;25763;49.972;8.568;2023-01-19T10:35:49;3.19;78.66
40059;SHT31;25763;49.972;8.568;2023-01-19T10:38:16;3.31;78.51
40059;SHT31;25763;49.972;8.568;2023-01-19T10:40:54;3.36;78.27
40059;SHT31;25763;49.972;8.568;2023-01-19T10:46:00;3.24;78.21
40059;SHT31;25763;49.972;8.568;2023-01-19T10:48:25;3.37;78.83
40059;SHT31;25763;49.972;8.568;2023-01-19T10:51:02;3.20;79.18
40059;SHT31;25763;49.972;8.568;2023-01-19T10:53:28;3.17;79.42
40059;SHT31;25763;49.972;8.568;2023-01-19T10:56:14;3.19;79.90
40059;SHT31;25763;49.972;8.568;2023-01-19T10:58:40;3.15;80.27
40059;SHT31;25763;49.972;8.568;2023-01-19T11:01:16;3.17;80.64
40059;SHT31;25763;49.972;8.568;2023-01-19T11:03:42;3.19;81.17
40059;SHT31;25763;49.972;8.568;2023-01-19T11:08:44;3.26;81.12
40059;SHT31;25763;49.972;8.568;2023-01-19T11:11:10;3.12;81.32
40059;SHT31;25763;49.972;8.568;2023-01-19T11:13:37;3.20;81.48
40059;SHT31;25763;49.972;8.568;2023-01-19T11:16:14;3.28;81.59
40059;SHT31;25763;49.972;8.568;2023-01-19T11:18:41;3.26;81.49
40059;SHT31;25763;49.972;8.568;2023-01-19T11:21:15;3.26;81.43
40059;SHT31;25763;49.972;8.568;2023-01-19T11:23:52;3.12;81.36
40059;SHT31;25763;49.972;8.568;2023-01-19T11:28:53;3.10;81.98
40059;SHT31;25763;49.972;8.568;2023-01-19T11:33:52;2.92;82.40
40059;SHT31;25763;49.972;8.568;2023-01-19T11:36:23;2.92;82.36
40059;SHT31;25763;49.972;8.568;2023-01-19T11:38:57;2.93;82.61
40059;SHT31;25763;49.972;8.568;2023-01-19T11:41:34;2.93;82.56
40059;SHT31;25763;49.972;8.568;2023-01-19T11:46:47;2.92;82.94
40059;SHT31;25763;49.972;8.568;2023-01-19T11:49:24;2.80;82.87
40059;SHT31;25763;49.972;8.568;2023-01-19T11:52:03;2.78;83.30
40059;SHT31;25763;49.972;8.568;2023-01-19T11:54:34;2.84;83.12
40059;SHT31;25763;49.972;8.568;2023-01-19T11:57:09;2.92;82.97
40059;SHT31;25763;49.972;8.568;2023-01-19T11:59:35;2.88;82.78
40059;SHT31;25763;49.972;8.568;2023-01-19T12:02:01;2.91;82.87
40059;SHT31;25763;49.972;8.568;2023-01-19T12:04:36;2.88;82.76
40059;SHT31;25763;49.972;8.568;2023-01-19T12:07:05;2.92;82.58
40059;SHT31;25763;49.972;8.568;2023-01-19T12:09:51;2.98;82.73
40059;SHT31;25763;49.972;8.568;2023-01-19T12:12:26;3.00;82.78
40059;SHT31;25763;49.972;8.568;2023-01-19T12:15:02;2.98;82.53
40059;SHT31;25763;49.972;8.568;2023-01-19T12:17:33;3.07;82.27
40059;SHT31;25763;49.972;8.568;2023-01-19T12:20:29;3.20;82.19
40059;SHT31;25763;49.972;8.568;2023-01-19T12:23:31;3.17;81.79
40059;SHT31;25763;49.972;8.568;2023-01-19T12:26:24;3.20;81.59
40059;SHT31;25763;49.972;8.568;2023-01-19T12:28:52;3.23;81.21
40059;SHT31;25763;49.972;8.568;2023-01-19T12:31:20;3.30;81.31
40059;SHT31;25763;49.972;8.568;2023-01-19T12:33:46;3.31;81.06
40059;SHT31;25763;49.972;8.568;2023-01-19T12:39:12;3.17;81.17
40059;SHT31;25763;49.972;8.568;2023-01-19T12:41:40;3.23;81.20
40059;SHT31;25763;49.972;8.568;2023-01-19T12:51:46;3.10;81.37
40059;SHT31;25763;49.972;8.568;2023-01-19T12:54:23;3.12;81.37
40059;SHT31;25763;49.972;8.568;2023-01-19T12:57:07;3.12;81.50
40059;SHT31;25763;49.972;8.568;2023-01-19T12:59:35;3.19;81.48
40059;SHT31;25763;49.972;8.568;2023-01-19T13:05:09;3.15;81.58
40059;SHT31;25763;49.972;8.568;2023-01-19T13:13:34;3.27;81.58
40059;SHT31;25763;49.972;8.568;2023-01-19T13:21:34;3.37;80.85
40059;SHT31;25763;49.972;8.568;2023-01-19T13:24:05;3.34;80.88
40059;SHT31;25763;49.972;8.568;2023-01-19T13:26:36;3.24;80.83
40059;SHT31;25763;49.972;8.568;2023-01-19T13:29:09;3.19;81.06
40059;SHT31;25763;49.972;8.568;2023-01-19T13:31:39;3.02;81.37
40059;SHT31;25763;49.972;8.568;2023-01-19T13:34:14;3.17;81.59
40059;SHT31;25763;49.972;8.568;2023-01-19T13:36:49;3.17;81.62
40059;SHT31;25763;49.972;8.568;2023-01-19T13:39:39;3.13;81.87
40059;SHT31;25763;49.972;8.568;2023-01-19T13:42:11;3.13;81.98
40059;SHT31;25763;49.972;8.568;2023-01-19T13:44:51;3.19;82.15
40059;SHT31;25763;49.972;8.568;2023-01-19T13:47:42;3.19;82.07
40059;SHT31;25763;49.972;8.568;2023-01-19T13:50:25;3.20;82.35
40059;SHT31;25763;49.972;8.568;2023-01-19T13:52:51;3.09;82.53
40059;SHT31;25763;49.972;8.568;2023-01-19T13:55:19;3.16;82.47
40059;SHT31;25763;49.972;8.568;2023-01-19T13:57:46;3.19;82.49
40059;SHT31;25763;49.972;8.568;2023-01-19T14:05:33;3.07;82.97
40059;SHT31;25763;49.972;8.568;2023-01-19T14:10:29;3.00;83.36
40059;SHT31;25763;49.972;8.568;2023-01-19T14:13:23;3.00;83.25
40059;SHT31;25763;49.972;8.568;2023-01-19T14:15:48;3.00;83.51
40059;SHT31;25763;49.972;8.568;2023-01-19T14:20:53;2.96;83.68
40059;SHT31;25763;49.972;8.568;2023-01-19T14:26:00;2.71;84.52
40059;SHT31;25763;49.972;8.568;2023-01-19T14:28:42;2.82;84.58
40059;SHT31;25763;49.972;8.568;2023-01-19T14:31:18;2.89;84.28
40059;SHT31;25763;49.972;8.568;2023-01-19T14:33:45;2.81;84.44
40059;SHT31;25763;49.972;8.568;2023-01-19T14:36:33;2.78;84.44
40059;SHT31;25763;49.972;8.568;2023-01-19T14:39:01;2.74;84.76
40059;SHT31;25763;49.972;8.568;2023-01-19T14:43:53;2.78;84.69
40059;SHT31;25763;49.972;8.568;2023-01-19T14:46:23;2.63;84.86
40059;SHT31;25763;49.972;8.568;2023-01-19T14:48:50;2.72;85.20
40059;SHT31;25763;49.972;8.568;2023-01-19T14:51:20;2.71;85.23
40059;SHT31;25763;49.972;8.568;2023-01-19T14:53:49;2.68;85.10
40059;SHT31;25763;49.972;8.568;2023-01-19T14:56:26;2.63;85.38
40059;SHT31;25763;49.972;8.568;2023-01-19T14:58:54;2.60;85.50
40059;SHT31;25763;49.972;8.568;2023-01-19T15:01:19;2.58;85.51
40059;SHT31;25763;49.972;8.568;2023-01-19T15:03:45;2.53;85.56
40059;SHT31;25763;49.972;8.568;2023-01-19T15:06:16;2.49;85.81
40059;SHT31;25763;49.972;8.568;2023-01-19T15:08:42;2.45;86.05
40059;SHT31;25763;49.972;8.568;2023-01-19T15:11:11;2.45;86.13
40059;SHT31;25763;49.972;8.568;2023-01-19T15:13:38;2.39;86.26
40059;SHT31;25763;49.972;8.568;2023-01-19T15:16:05;2.40;86.30
40059;SHT31;25763;49.972;8.568;2023-01-19T15:18:33;2.43;86.23
40059;SHT31;25763;49.972;8.568;2023-01-19T15:20:58;2.37;86.46
40059;SHT31;25763;49.972;8.568;2023-01-19T15:23:31;2.35;86.68
40059;SHT31;25763;49.972;8.568;2023-01-19T15:26:01;2.25;86.64
40059;SHT31;25763;49.972;8.568;2023-01-19T15:28:27;2.26;86.63
40059;SHT31;25763;49.972;8.568;2023-01-19T15:30:53;2.19;86.65
40059;SHT31;25763;49.972;8.568;2023-01-19T15:33:20;2.33;86.48
40059;SHT31;25763;49.972;8.568;2023-01-19T15:35:46;2.32;86.52
40059;SHT31;25763;49.972;8.568;2023-01-19T15:38:11;2.30;86.48
40059;SHT31;25763;49.972;8.568;2023-01-19T15:40:37;2.26;86.49
40059;SHT31;25763;49.972;8.568;2023-01-19T15:43:02;2.26;86.44
40059;SHT31;25763;49.972;8.568;2023-01-19T15:45:36;2.21;86.55
40059;SHT31;25763;49.972;8.568;2023-01-19T15:48:07;2.16;86.59
40059;SHT31;25763;49.972;8.568;2023-01-19T15:50:35;2.16;86.71
40059;SHT31;25763;49.972;8.568;2023-01-19T15:53:01;2.15;86.78
40059;SHT31;25763;49.972;8.568;2023-01-19T15:55:27;2.13;86.83
40059;SHT31;25763;49.972;8.568;2023-01-19T15:57:52;2.12;86.92
40059;SHT31;25763;49.972;8.568;2023-01-19T16:00:18;2.11;87.22
40059;SHT31;25763;49.972;8.568;2023-01-19T16:02:43;2.09;87.08
40059;SHT31;25763;49.972;8.568;2023-01-19T16:05:09;2.12;87.14
40059;SHT31;25763;49.972;8.568;2023-01-19T16:07:35;2.12;87.05
40059;SHT31;25763;49.972;8.568;2023-01-19T16:10:00;2.11;87.00
40059;SHT31;25763;49.972;8.568;2023-01-19T16:12:27;2.06;87.13
40059;SHT31;25763;49.972;8.568;2023-01-19T16:14:53;2.11;87.11
40059;SHT31;25763;49.972;8.568;2023-01-19T16:17:18;2.09;87.01
40059;SHT31;25763;49.972;8.568;2023-01-19T16:19:44;2.15;86.98
40059;SHT31;25763;49.972;8.568;2023-01-19T16:22:10;2.19;86.86
40059;SHT31;25763;49.972;8.568;2023-01-19T16:24:35;2.18;86.81
40059;SHT31;25763;49.972;8.568;2023-01-19T16:27:01;2.18;86.73
40059;SHT31;25763;49.972;8.568;2023-01-19T16:29:28;2.11;86.77
40059;SHT31;25763;49.972;8.568;2023-01-19T16:31:54;2.12;86.82
40059;SHT31;25763;49.972;8.568;2023-01-19T16:34:20;2.04;87.04
40059;SHT31;25763;49.972;8.568;2023-01-19T16:36:47;2.02;87.11
40059;SHT31;25763;49.972;8.568;2023-01-19T16:39:13;1.94;87.15
40059;SHT31;25763;49.972;8.568;2023-01-19T16:41:39;2.01;87.16
40059;SHT31;25763;49.972;8.568;2023-01-19T16:44:05;1.95;87.43
40059;SHT31;25763;49.972;8.568;2023-01-19T16:46:35;1.99;87.26
40059;SHT31;25763;49.972;8.568;2023-01-19T16:49:03;2.01;87.22
40059;SHT31;25763;49.972;8.568;2023-01-19T16:51:29;1.98;87.25
40059;SHT31;25763;49.972;8.568;2023-01-19T16:53:55;1.99;87.22
40059;SHT31;25763;49.972;8.568;2023-01-19T16:56:20;1.94;87.18
40059;SHT31;25763;49.972;8.568;2023-01-19T16:58:46;1.97;87.17
40059;SHT31;25763;49.972;8.568;2023-01-19T17:01:15;1.94;87.18
40059;SHT31;25763;49.972;8.568;2023-01-19T17:03:41;1.94;87.33